KHYA/HYA METAR and TAF weather

Enter ICAO airport designator
Station Type Date Time Source
KHYA METAR 2020/07/11 19:56 UTC NOAA

KHYA 111956Z 19013G20KT 10SM BKN007 27/23 A2975 RMK AO2 SLP075 T02720233


Station Type Date Time Source
KHYA Decoded METAR 2020/07/11 19:56 UTC NOAA

HYANNIS BARNSTABLE BOARDMN, MA, United States (KHYA) 41-40N 070-16W 22M
Jul 11, 2020 - 03:56 PM EDT / 2020.07.11 1956 UTC
Wind: from the S (190 degrees) at 15 MPH (13 KT) gusting to 23 MPH (20 KT):0
Visibility: 10 mile(s):0
Sky conditions: mostly cloudy
Temperature: 81.0 F (27.2 C)
Dew Point: 73.9 F (23.3 C)
Relative Humidity: 79%
Pressure (altimeter): 29.75 in. Hg (1007 hPa)
ob: KHYA 111956Z 19013G20KT 10SM BKN007 27/23 A2975 RMK AO2 SLP075 T02720233
cycle: 20

Station Type Date Time Source
KHYA TAF 2020/07/11 18:30 UTC NOAA

TAF KHYA 111729Z 1118/1218 19010KT P6SM OVC003
FM112300 19012G23KT 6SM BR BKN015
FM120400 20013KT 2SM BR OVC003
FM121200 22012KT P6SM BKN008
FM121400 22014KT P6SM FEW025

Example: see airport list